createdAt,value
2022-08-28T00:00:39.788Z,29.93
2022-08-28T00:03:11.753Z,29.96
2022-08-28T00:05:46.210Z,29.93
2022-08-28T00:08:22.127Z,29.96
2022-08-28T00:10:51.940Z,29.87
2022-08-28T00:13:24.961Z,29.93
2022-08-28T00:15:59.684Z,29.97
2022-08-28T00:18:32.217Z,29.98
2022-08-28T00:21:02.486Z,29.96
2022-08-28T00:23:43.007Z,29.98
2022-08-28T00:26:33.458Z,30.00
2022-08-28T00:29:03.637Z,29.95
2022-08-28T00:31:33.010Z,29.86
2022-08-28T00:34:04.637Z,30.00
2022-08-28T00:36:34.245Z,29.98
2022-08-28T00:39:04.454Z,30.00
2022-08-28T00:41:36.770Z,30.07
2022-08-28T00:44:20.330Z,30.07
2022-08-28T00:46:52.850Z,30.09
2022-08-28T00:49:26.913Z,30.10
2022-08-28T00:52:14.205Z,30.13
2022-08-28T00:54:59.848Z,30.13
2022-08-28T00:57:37.937Z,30.11
2022-08-28T01:00:19.344Z,30.11
2022-08-28T01:02:48.863Z,30.09
2022-08-28T01:05:19.643Z,30.14
2022-08-28T01:07:50.394Z,30.14
2022-08-28T01:10:24.923Z,30.15
2022-08-28T01:12:56.549Z,30.15
2022-08-28T01:15:31.059Z,30.09
2022-08-28T01:18:12.192Z,30.08
2022-08-28T01:20:59.476Z,30.17
2022-08-28T01:24:00.767Z,30.04
2022-08-28T01:26:32.070Z,30.20
2022-08-28T01:29:04.607Z,30.09
2022-08-28T01:31:34.464Z,30.18
2022-08-28T01:34:05.877Z,30.22
2022-08-28T01:36:38.913Z,30.18
2022-08-28T01:39:18.753Z,30.04
2022-08-28T01:41:53.587Z,30.21
2022-08-28T01:44:28.856Z,30.19
2022-08-28T01:47:00.651Z,29.99
2022-08-28T01:49:31.011Z,30.15
2022-08-28T01:52:03.670Z,30.13
2022-08-28T01:54:35.985Z,30.10
2022-08-28T01:57:09.886Z,30.12
2022-08-28T01:59:39.537Z,30.14
2022-08-28T02:02:12.287Z,29.90
2022-08-28T02:04:42.723Z,30.13
2022-08-28T02:07:16.134Z,30.01
2022-08-28T02:09:46.964Z,30.16
2022-08-28T02:12:17.913Z,30.05
2022-08-28T02:14:47.740Z,30.15
2022-08-28T02:17:18.787Z,30.00
2022-08-28T02:19:48.440Z,30.15
2022-08-28T02:22:18.244Z,30.15
2022-08-28T02:24:48.303Z,30.04
2022-08-28T02:27:19.203Z,30.16
2022-08-28T02:29:48.557Z,30.14
2022-08-28T02:32:21.698Z,30.07
2022-08-28T02:34:52.947Z,30.18
2022-08-28T02:37:25.341Z,30.05
2022-08-28T02:39:59.288Z,30.14
2022-08-28T02:42:30.162Z,30.20
2022-08-28T02:45:01.898Z,30.04
2022-08-28T02:47:31.286Z,30.19
2022-08-28T02:50:00.688Z,30.23
2022-08-28T02:52:30.081Z,30.26
2022-08-28T02:54:59.727Z,30.24
2022-08-28T02:57:29.373Z,30.18
2022-08-28T03:00:01.238Z,30.31
2022-08-28T03:02:33.404Z,30.25
2022-08-28T03:05:03.547Z,30.27
2022-08-28T03:07:33.191Z,30.29
2022-08-28T03:10:03.923Z,30.33
2022-08-28T03:12:39.533Z,30.35
2022-08-28T03:15:10.648Z,30.25
2022-08-28T03:17:40.848Z,30.35
2022-08-28T03:20:13.807Z,30.33
2022-08-28T03:23:01.642Z,30.37
2022-08-28T03:25:31.223Z,30.31
2022-08-28T03:28:03.175Z,30.34
2022-08-28T03:30:33.757Z,30.37
2022-08-28T03:33:05.534Z,30.38
2022-08-28T03:35:36.697Z,30.37
2022-08-28T03:38:13.040Z,30.44
2022-08-28T03:40:48.610Z,30.44
2022-08-28T03:43:24.308Z,30.46
2022-08-28T03:46:01.238Z,30.49
2022-08-28T03:48:37.056Z,30.49
2022-08-28T03:51:19.486Z,30.52
2022-08-28T03:53:58.326Z,30.38
2022-08-28T03:56:30.810Z,30.44
2022-08-28T03:59:04.145Z,30.52
2022-08-28T04:01:35.210Z,30.40
2022-08-28T04:04:09.867Z,30.52
2022-08-28T04:06:39.735Z,30.49
2022-08-28T04:09:09.595Z,30.53
2022-08-28T04:11:44.070Z,30.49
2022-08-28T04:14:17.024Z,30.53
2022-08-28T04:16:48.236Z,30.45
2022-08-28T04:19:18.856Z,30.56
2022-08-28T04:21:49.468Z,30.54
2022-08-28T04:24:19.312Z,30.52
2022-08-28T04:26:51.230Z,30.62
2022-08-28T04:29:27.450Z,30.61
2022-08-28T04:32:01.061Z,30.55
2022-08-28T04:34:37.136Z,30.54
2022-08-28T04:37:09.597Z,30.62
2022-08-28T04:39:40.699Z,30.61
2022-08-28T04:42:11.498Z,30.66
2022-08-28T04:44:41.482Z,30.51
2022-08-28T04:47:12.672Z,30.63
2022-08-28T04:49:44.039Z,30.62
2022-08-28T04:52:13.666Z,30.67
2022-08-28T04:54:43.328Z,30.64
2022-08-28T04:57:13.102Z,30.63
2022-08-28T04:59:44.989Z,30.68
2022-08-28T05:02:14.439Z,30.62
2022-08-28T05:04:47.245Z,30.56
2022-08-28T05:07:18.429Z,30.59
2022-08-28T05:09:48.995Z,30.64
2022-08-28T05:12:19.222Z,30.64
2022-08-28T05:14:49.201Z,30.55
2022-08-28T05:17:23.443Z,30.61
2022-08-28T05:19:53.853Z,30.54
2022-08-28T05:22:23.741Z,30.49
2022-08-28T05:24:54.685Z,30.57
2022-08-28T05:27:27.280Z,30.54
2022-08-28T05:30:02.194Z,30.57
2022-08-28T05:32:32.836Z,30.58
2022-08-28T05:35:03.348Z,30.58
2022-08-28T05:37:37.194Z,30.55
2022-08-28T05:40:13.341Z,30.54
2022-08-28T05:42:44.649Z,30.56
2022-08-28T05:45:15.432Z,30.51
2022-08-28T05:47:46.395Z,30.56
2022-08-28T05:50:16.794Z,30.58
2022-08-28T05:52:46.823Z,30.57
2022-08-28T05:55:20.667Z,30.56
2022-08-28T05:57:51.798Z,30.60
2022-08-28T06:00:24.002Z,30.35
2022-08-28T06:02:55.172Z,30.64
2022-08-28T06:05:24.909Z,30.49
2022-08-28T06:07:57.013Z,30.58
2022-08-28T06:10:27.255Z,30.50
2022-08-28T06:12:58.648Z,30.63
2022-08-28T06:15:28.772Z,30.50
2022-08-28T06:17:58.430Z,30.53
2022-08-28T06:20:28.233Z,30.57
2022-08-28T06:23:01.351Z,30.54
2022-08-28T06:25:31.299Z,30.43
2022-08-28T06:28:02.618Z,30.56
2022-08-28T06:31:18.617Z,30.57
2022-08-28T06:33:49.813Z,30.60
2022-08-28T06:36:19.403Z,30.58
2022-08-28T06:38:50.472Z,30.50
2022-08-28T06:41:21.084Z,30.55
2022-08-28T06:43:50.829Z,30.58
2022-08-28T06:46:31.098Z,30.37
2022-08-28T06:49:01.099Z,30.46
2022-08-28T06:51:32.903Z,30.53
2022-08-28T06:54:03.484Z,30.51
2022-08-28T06:56:34.105Z,30.52
2022-08-28T06:59:06.588Z,30.54
2022-08-28T07:01:40.458Z,30.52
2022-08-28T07:04:13.819Z,30.49
2022-08-28T07:06:49.305Z,30.51
2022-08-28T07:09:23.113Z,30.50
2022-08-28T07:11:54.499Z,30.52
2022-08-28T07:14:25.825Z,30.44
2022-08-28T07:16:56.409Z,30.44
2022-08-28T07:19:25.959Z,30.43
2022-08-28T07:21:58.231Z,30.44
2022-08-28T07:24:32.039Z,30.41
2022-08-28T07:27:02.665Z,30.45
2022-08-28T07:29:32.302Z,30.41
2022-08-28T07:32:02.807Z,30.38
2022-08-28T07:34:34.218Z,30.39
2022-08-28T07:37:11.109Z,30.42
2022-08-28T07:39:46.618Z,30.30
2022-08-28T07:42:37.545Z,30.37
2022-08-28T07:45:09.516Z,30.39
2022-08-28T07:47:40.006Z,30.38
2022-08-28T07:50:09.718Z,30.37
2022-08-28T07:52:40.730Z,30.35
2022-08-28T07:55:10.762Z,30.13
2022-08-28T07:57:40.397Z,30.33
2022-08-28T08:00:11.403Z,30.29
2022-08-28T08:02:41.397Z,30.39
2022-08-28T08:05:12.886Z,30.30
2022-08-28T08:07:45.269Z,30.36
2022-08-28T08:10:20.736Z,30.28
2022-08-28T08:12:56.583Z,30.36
2022-08-28T08:15:31.109Z,30.33
2022-08-28T08:18:01.368Z,30.32
2022-08-28T08:20:32.962Z,30.27
2022-08-28T08:23:07.231Z,30.23
2022-08-28T08:25:40.907Z,30.29
2022-08-28T08:28:12.969Z,30.20
2022-08-28T08:30:42.896Z,30.15
2022-08-28T08:33:14.285Z,30.31
2022-08-28T08:35:45.077Z,30.28
2022-08-28T08:38:14.910Z,30.24
2022-08-28T08:40:45.132Z,30.32
2022-08-28T08:43:17.490Z,30.28
2022-08-28T08:45:51.133Z,30.16
2022-08-28T08:48:34.603Z,30.25
2022-08-28T08:51:11.125Z,30.28
2022-08-28T08:53:52.267Z,30.23
2022-08-28T08:56:23.561Z,30.13
2022-08-28T08:59:08.054Z,30.20
2022-08-28T09:01:53.224Z,30.13
2022-08-28T09:04:56.452Z,30.19
2022-08-28T09:08:07.192Z,30.23
2022-08-28T09:11:06.198Z,30.20
2022-08-28T09:13:59.335Z,30.13
2022-08-28T09:16:39.434Z,30.17
2022-08-28T09:19:16.682Z,30.12
2022-08-28T09:21:47.553Z,30.04
2022-08-28T09:24:31.290Z,30.09
2022-08-28T09:27:14.324Z,30.04
2022-08-28T09:29:45.771Z,30.05
2022-08-28T09:32:28.842Z,30.03
2022-08-28T09:35:16.211Z,30.15
2022-08-28T09:37:46.648Z,30.16
2022-08-28T09:40:30.294Z,30.08
2022-08-28T09:43:35.300Z,30.15
2022-08-28T09:46:29.024Z,30.14
2022-08-28T09:49:13.834Z,30.09
2022-08-28T09:51:45.620Z,30.15
2022-08-28T09:54:24.115Z,30.12
2022-08-28T09:56:57.515Z,30.01
2022-08-28T09:59:29.043Z,30.12
2022-08-28T10:02:22.397Z,30.13
2022-08-28T10:05:10.812Z,30.10
2022-08-28T10:08:01.107Z,30.12
2022-08-28T10:10:43.775Z,30.10
2022-08-28T10:13:29.109Z,30.10
2022-08-28T10:16:29.054Z,30.10
2022-08-28T10:19:31.112Z,30.05
2022-08-28T10:22:24.873Z,30.04
2022-08-28T10:25:06.103Z,30.02
2022-08-28T10:27:56.902Z,30.05
2022-08-28T10:30:27.610Z,30.04
2022-08-28T10:33:08.233Z,30.04
2022-08-28T10:35:51.814Z,30.04
2022-08-28T10:38:34.106Z,30.04
2022-08-28T10:41:22.834Z,30.03
2022-08-28T10:43:54.866Z,29.88
2022-08-28T10:46:36.617Z,30.01
2022-08-28T10:49:21.059Z,29.94
2022-08-28T10:52:07.754Z,29.98
2022-08-28T10:55:00.553Z,29.88
2022-08-28T10:57:55.264Z,29.96
2022-08-28T11:00:28.159Z,29.91
2022-08-28T11:03:05.006Z,29.95
2022-08-28T11:05:46.642Z,29.94
2022-08-28T11:08:36.183Z,29.96
2022-08-28T11:11:10.960Z,29.81
2022-08-28T11:14:02.207Z,29.96
2022-08-28T11:16:34.138Z,29.96
2022-08-28T11:19:28.588Z,29.96
2022-08-28T11:22:02.354Z,29.82
2022-08-28T11:24:36.540Z,29.94
2022-08-28T11:27:19.284Z,29.94
2022-08-28T11:30:06.826Z,29.93
2022-08-28T11:32:38.697Z,29.81
2022-08-28T11:35:50.991Z,29.92
2022-08-28T11:38:48.192Z,29.91
2022-08-28T11:41:24.155Z,29.90
2022-08-28T11:44:16.343Z,29.92
2022-08-28T11:46:53.657Z,29.84
2022-08-28T11:49:35.608Z,29.93
2022-08-28T11:52:27.254Z,29.92
2022-08-28T11:55:19.182Z,29.89
2022-08-28T12:00:59.007Z,29.92
2022-08-28T12:03:38.335Z,29.91
2022-08-28T12:06:10.703Z,29.77
2022-08-28T12:08:56.552Z,29.91
2022-08-28T12:11:52.242Z,29.91
2022-08-28T12:14:27.664Z,29.80
2022-08-28T12:17:07.308Z,29.91
2022-08-28T12:19:58.447Z,29.87
2022-08-28T12:22:42.078Z,29.91
2022-08-28T12:25:25.110Z,29.86
2022-08-28T12:27:57.814Z,29.92
2022-08-28T12:30:45.960Z,29.86
2022-08-28T12:33:33.594Z,29.88
2022-08-28T12:36:10.031Z,29.91
2022-08-28T12:38:42.979Z,29.82
2022-08-28T12:41:21.120Z,29.89
2022-08-28T12:43:57.102Z,29.70
2022-08-28T12:46:37.762Z,29.19
2022-08-28T12:49:59.046Z,28.30
2022-08-28T12:52:30.429Z,27.44
2022-08-28T12:55:00.518Z,26.85
2022-08-28T12:57:35.484Z,26.32
2022-08-28T13:00:20.111Z,26.12
2022-08-28T13:02:56.396Z,25.83
2022-08-28T13:05:37.138Z,25.61
2022-08-28T13:08:14.359Z,25.77
2022-08-28T13:10:56.629Z,25.47
2022-08-28T13:13:36.809Z,25.34
2022-08-28T13:16:19.539Z,25.01
2022-08-28T13:19:14.286Z,25.14
2022-08-28T13:21:50.837Z,25.02
2022-08-28T13:24:32.218Z,24.87
2022-08-28T13:27:26.825Z,24.66
2022-08-28T13:30:04.076Z,24.47
2022-08-28T13:32:38.213Z,24.53
2022-08-28T13:35:33.676Z,24.59
2022-08-28T13:38:09.924Z,24.59
2022-08-28T13:41:00.087Z,24.36
2022-08-28T13:43:48.836Z,24.35
2022-08-28T13:46:30.095Z,24.26
2022-08-28T13:49:03.086Z,24.27
2022-08-28T13:51:39.497Z,24.10
2022-08-28T13:54:10.071Z,23.88
2022-08-28T13:56:46.978Z,24.10
2022-08-28T13:59:16.692Z,24.00
2022-08-28T14:02:08.534Z,24.07
2022-08-28T14:04:39.554Z,23.98
2022-08-28T14:07:09.518Z,23.97
2022-08-28T14:09:40.998Z,23.78
2022-08-28T14:12:19.489Z,23.73
2022-08-28T14:14:53.147Z,23.80
2022-08-28T14:17:26.732Z,23.84
2022-08-28T14:20:12.134Z,23.83
2022-08-28T14:22:45.737Z,23.71
2022-08-28T14:25:15.983Z,23.61
2022-08-28T14:27:49.225Z,23.74
2022-08-28T14:30:22.802Z,23.62
2022-08-28T14:32:53.922Z,23.62
2022-08-28T14:35:23.353Z,23.68
2022-08-28T14:37:56.094Z,23.44
2022-08-28T14:40:25.533Z,23.61
2022-08-28T14:42:56.105Z,23.57
2022-08-28T14:45:32.099Z,23.81
2022-08-28T14:48:02.791Z,23.81
2022-08-28T14:50:40.422Z,23.75
2022-08-28T14:53:15.394Z,23.97
2022-08-28T14:55:55.003Z,23.94
2022-08-28T14:58:28.775Z,23.62
2022-08-28T15:01:02.860Z,23.85
2022-08-28T15:03:36.302Z,24.13
2022-08-28T15:06:14.091Z,24.57
2022-08-28T15:08:45.092Z,24.98
2022-08-28T15:11:20.598Z,25.24
2022-08-28T15:13:54.677Z,25.61
2022-08-28T15:16:38.844Z,25.89
2022-08-28T15:19:17.640Z,26.13
2022-08-28T15:21:57.636Z,26.32
2022-08-28T15:24:31.263Z,26.48
2022-08-28T15:27:04.137Z,26.60
2022-08-28T15:29:35.606Z,26.70
2022-08-28T15:32:20.096Z,26.85
2022-08-28T15:34:55.975Z,26.94
2022-08-28T15:37:28.203Z,26.98
2022-08-28T15:40:22.319Z,27.08
2022-08-28T15:42:56.141Z,27.17
2022-08-28T15:45:29.830Z,27.20
2022-08-28T15:48:00.156Z,27.23
2022-08-28T15:50:40.188Z,27.37
2022-08-28T15:53:18.451Z,27.46
2022-08-28T15:55:48.562Z,27.47
2022-08-28T15:58:23.945Z,27.51
2022-08-28T16:01:16.485Z,27.49
2022-08-28T16:03:52.889Z,27.65
2022-08-28T16:06:24.818Z,27.69
2022-08-28T16:08:59.000Z,27.72
2022-08-28T16:11:28.575Z,27.69
2022-08-28T16:14:06.094Z,27.79
2022-08-28T16:16:38.319Z,27.83
2022-08-28T16:19:12.420Z,27.68
2022-08-28T16:21:46.049Z,27.94
2022-08-28T16:24:17.913Z,27.98
2022-08-28T16:26:52.051Z,27.99
2022-08-28T16:29:23.833Z,27.99
2022-08-28T16:31:55.015Z,28.00
2022-08-28T16:34:28.237Z,28.06
2022-08-28T16:37:02.457Z,27.96
2022-08-28T16:39:33.490Z,28.03
2022-08-28T16:42:05.636Z,28.15
2022-08-28T16:44:40.834Z,28.11
2022-08-28T16:47:15.567Z,28.17
2022-08-28T16:49:48.999Z,28.01
2022-08-28T16:52:23.756Z,28.23
2022-08-28T16:54:58.469Z,28.18
2022-08-28T16:57:31.349Z,28.31
2022-08-28T17:00:07.223Z,28.27
2022-08-28T17:02:37.197Z,28.29
2022-08-28T17:05:07.724Z,28.33
2022-08-28T17:07:47.542Z,28.37
2022-08-28T17:10:23.870Z,28.41
2022-08-28T17:12:54.701Z,28.30
2022-08-28T17:15:26.893Z,28.42
2022-08-28T17:18:00.913Z,28.32
2022-08-28T17:20:49.159Z,28.51
2022-08-28T17:23:24.827Z,28.47
2022-08-28T17:25:56.901Z,28.45
2022-08-28T17:28:28.020Z,28.34
2022-08-28T17:30:57.976Z,28.53
2022-08-28T17:33:31.337Z,28.52
2022-08-28T17:36:03.127Z,28.48
2022-08-28T17:38:33.957Z,28.57
2022-08-28T17:41:08.437Z,28.59
2022-08-28T17:43:42.221Z,28.62
2022-08-28T17:46:12.024Z,28.57
2022-08-28T17:48:41.683Z,28.61
2022-08-28T17:51:42.851Z,28.63
2022-08-28T17:54:16.717Z,28.66
2022-08-28T17:56:48.162Z,28.67
2022-08-28T17:59:21.795Z,28.65
2022-08-28T18:01:54.387Z,28.71
2022-08-28T18:04:25.316Z,28.53
2022-08-28T18:06:58.834Z,28.69
2022-08-28T18:09:28.595Z,28.71
2022-08-28T18:12:00.225Z,28.69
2022-08-28T18:14:31.408Z,28.69
2022-08-28T18:17:00.885Z,28.72
2022-08-28T18:19:30.940Z,28.74
2022-08-28T18:22:01.084Z,28.72
2022-08-28T18:24:30.778Z,28.76
2022-08-28T18:27:01.460Z,28.76
2022-08-28T18:29:31.261Z,28.76
2022-08-28T18:32:03.313Z,28.76
2022-08-28T18:34:33.303Z,28.68
2022-08-28T18:37:04.372Z,28.70
2022-08-28T18:39:35.465Z,28.78
2022-08-28T18:42:05.165Z,28.81
2022-08-28T18:44:35.168Z,28.81
2022-08-28T18:47:05.661Z,28.76
2022-08-28T18:49:35.460Z,28.61
2022-08-28T18:52:05.440Z,28.85
2022-08-28T18:54:39.415Z,28.80
2022-08-28T18:57:11.631Z,28.84
2022-08-28T18:59:43.002Z,28.75
2022-08-28T19:02:14.753Z,28.81
2022-08-28T19:04:47.370Z,28.76
2022-08-28T19:07:17.804Z,28.84
2022-08-28T19:09:48.434Z,28.86
2022-08-28T19:12:18.693Z,28.86
2022-08-28T19:14:48.928Z,28.87
2022-08-28T19:17:21.149Z,28.89
2022-08-28T19:19:51.449Z,28.88
2022-08-28T19:22:21.091Z,28.82
2022-08-28T19:24:53.479Z,28.81
2022-08-28T19:27:25.536Z,28.90
2022-08-28T19:29:55.361Z,28.87
2022-08-28T19:32:27.908Z,28.78
2022-08-28T19:35:00.054Z,28.92
2022-08-28T19:37:29.741Z,28.84
2022-08-28T19:39:59.427Z,28.89
2022-08-28T19:42:30.095Z,28.92
2022-08-28T19:45:00.157Z,28.92
2022-08-28T19:47:35.333Z,28.85
2022-08-28T19:50:11.258Z,28.96
2022-08-28T19:52:43.556Z,28.84
2022-08-28T19:55:26.247Z,28.95
2022-08-28T19:57:57.243Z,28.96
2022-08-28T20:00:33.585Z,28.96
2022-08-28T20:03:03.498Z,28.95
2022-08-28T20:05:33.327Z,28.99
2022-08-28T20:08:04.605Z,28.98
2022-08-28T20:10:35.054Z,28.91
2022-08-28T20:13:05.624Z,28.87
2022-08-28T20:15:36.164Z,28.97
2022-08-28T20:18:07.970Z,28.99
2022-08-28T20:20:39.977Z,29.00
2022-08-28T20:23:10.618Z,29.00
2022-08-28T20:25:40.652Z,28.88
2022-08-28T20:28:09.921Z,28.78
2022-08-28T20:30:40.805Z,28.88
2022-08-28T20:33:10.298Z,29.01
2022-08-28T20:35:42.816Z,28.91
2022-08-28T20:38:12.485Z,28.94
2022-08-28T20:40:42.385Z,29.03
2022-08-28T20:43:13.463Z,28.96
2022-08-28T20:45:43.284Z,28.92
2022-08-28T20:48:13.279Z,29.00
2022-08-28T20:50:42.935Z,28.98
2022-08-28T20:53:12.536Z,28.99
2022-08-28T20:55:51.988Z,29.01
2022-08-28T20:58:22.182Z,28.93
2022-08-28T21:00:53.563Z,29.05
2022-08-28T21:03:29.265Z,28.91
2022-08-28T21:05:59.936Z,29.02
2022-08-28T21:08:29.567Z,28.97
2022-08-28T21:11:00.761Z,28.96
2022-08-28T21:13:30.072Z,29.00
2022-08-28T21:15:59.686Z,28.93
2022-08-28T21:18:30.506Z,29.03
2022-08-28T21:21:01.597Z,29.06
2022-08-28T21:23:32.178Z,29.04
2022-08-28T21:26:01.840Z,29.04
2022-08-28T21:28:31.271Z,29.00
2022-08-28T21:31:02.440Z,29.00
2022-08-28T21:33:33.577Z,28.98
2022-08-28T21:36:03.135Z,29.04
2022-08-28T21:38:32.448Z,29.01
2022-08-28T21:41:05.090Z,29.02
2022-08-28T21:43:35.852Z,29.08
2022-08-28T21:46:06.841Z,29.06
2022-08-28T21:48:40.669Z,28.98
2022-08-28T21:51:16.614Z,29.07
2022-08-28T21:53:47.807Z,29.00
2022-08-28T21:56:26.962Z,29.10
2022-08-28T21:58:58.983Z,29.12
2022-08-28T22:01:29.083Z,29.15
2022-08-28T22:03:59.165Z,28.94
2022-08-28T22:06:29.207Z,29.16
2022-08-28T22:09:00.329Z,29.15
2022-08-28T22:11:30.040Z,29.06
2022-08-28T22:14:00.298Z,28.98
2022-08-28T22:16:32.095Z,28.83
2022-08-28T22:19:02.603Z,28.54
2022-08-28T22:21:51.386Z,28.37
2022-08-28T22:24:22.305Z,28.29
2022-08-28T22:26:57.700Z,28.24
2022-08-28T22:29:27.432Z,27.98
2022-08-28T22:31:57.074Z,28.25
2022-08-28T22:34:26.663Z,28.47
2022-08-28T22:36:56.271Z,28.41
2022-08-28T22:39:27.102Z,28.34
2022-08-28T22:41:58.154Z,28.36
2022-08-28T22:44:28.828Z,28.34
2022-08-28T22:47:00.728Z,28.55
2022-08-28T22:49:30.552Z,28.20
2022-08-28T22:52:01.516Z,27.79
2022-08-28T22:54:31.159Z,27.22
2022-08-28T22:57:00.872Z,26.97
2022-08-28T22:59:30.576Z,26.95
2022-08-28T23:02:01.310Z,26.88
2022-08-28T23:04:32.310Z,26.71
2022-08-28T23:07:03.785Z,26.41
2022-08-28T23:09:36.062Z,26.35
2022-08-28T23:12:12.977Z,26.49
2022-08-28T23:14:48.255Z,26.35
2022-08-28T23:17:21.059Z,26.28
2022-08-28T23:19:52.150Z,26.33
2022-08-28T23:22:23.706Z,26.15
2022-08-28T23:24:54.063Z,25.98
2022-08-28T23:27:40.241Z,26.09
2022-08-28T23:30:12.087Z,25.96
2022-08-28T23:32:43.927Z,26.06
2022-08-28T23:35:15.296Z,25.91
2022-08-28T23:37:52.542Z,25.73
2022-08-28T23:40:24.635Z,25.96
2022-08-28T23:42:56.395Z,25.85
2022-08-28T23:45:27.526Z,25.75
2022-08-28T23:48:01.795Z,25.79
2022-08-28T23:50:32.703Z,25.73
2022-08-28T23:53:02.569Z,25.67
2022-08-28T23:55:34.493Z,25.81
2022-08-28T23:58:07.402Z,25.64
